Skip Navigation Links
NOAA logo - Click to go to the NOAA homepage
NOAA's National Weather Service
Alaska Aviation Weather Unit
  NWS logo - Click to go to the NWS homepage
Left Navbar Graphic     01 AKDT = 09 GMT

   
NOAA is celebrating 200 years of science, service, and stewardship. Visit the NOAA 200th celebration Web site to learn more.
USA.gov is the U.S. Government's official Web portal to all Federal, state and local government Web resources and services.
Facebook
NWS on Facebook

Important Change Regarding the AAWU Web Presence

 

Over the last several months, the AAWU has been working to navigate its webpages to a nationally supported server. Security, as well as other needs, have necessitated the change.  We have been given an extension for the site changeover while we diligently work at addressing feedback received. As of July 14, 2017, aawu.arh.noaa.gov will be discontinued. The new AAWU web address is weather.gov/aawu. It is now live and will run in-parallel with the old site until it is discontinued on July 14, 2017. Please continue to send any feedback or questions regarding the new webpages to nws.ar.aawu.webauthors@noaa.gov.  Thank you for your patience during this time of transition.
AAWU Home :: Display TAF Add Bookmark
TAF PASI 190524Z 1906/2006  15008KT 6SM -SHRA SCT015 BKN035 OVC050
      TEMPO 1906/1909 4SM SHRA BR SCT010 BKN025 OVC035
     FM191200 18012G20KT 3SM -SHRA BR FEW006 OVC010
     FM192000 18008KT P6SM -SHRA FEW006 OVC025=

7456
FTAK31 PAJN 190524
TAFAKW
TAF
METAR PASI 190353Z 17006KT 10SM FEW017 SCT039 BKN055 13/11 A3001=

PASI 190426Z 00000KT 8SM -RA SCT015 BKN025 OVC055 13/12 A3001=

SPECI PASI 190426Z 00000KT 8SM -RA SCT015 BKN025 OVC055 13/12 A3001 RMK
     AO2 RAB23 CIG 022V034 P0000 T01280117=

PASI 190445Z 09004KT 7SM -RA FEW011 BKN047 OVC060 13/12 A3002=

SPECI PASI 190445Z 09004KT 7SM -RA FEW011 BKN047 OVC060 13/12 A3002 RMK
     AO2 RAB23 P0002 T01280117=

METAR PASI 190453Z 11006KT 4SM +RA BR SCT011 BKN037 OVC048 13/12
     A3002=

METAR PASI 190553Z 08006KT 10SM SCT024 BKN029 OVC044 12/12 A3002=

METAR PASI 190653Z 10006KT 7SM -RA BKN019 BKN028 OVC060 12/11 A3003=

METAR PASI 190753Z 11006KT 10SM BKN016 BKN070 OVC080 12/11 A3003=

PASI 190811Z 08007KT 10SM FEW018 BKN070 OVC080 12/11 A3003=

SPECI PASI 190811Z 08007KT 10SM FEW018 BKN070 OVC080 12/11 A3003 RMK AO2
     T01170111=

PASI 190842Z 10003KT 10SM BKN017 BKN030 BKN080 12/11 A3003=

SPECI PASI 190842Z 10003KT 10SM BKN017 BKN030 BKN080 12/11 A3003 RMK AO2
     T01170111=

METAR PASI 190853Z 10004KT 10SM BKN017 BKN024 OVC055 12/11 A3003=


NOAA's National Weather Service
Alaska Aviation Weather Unit
6930 Sand Lake Road
Anchorage, AK 99502-1845
Disclaimer
Credits
Glossary
Privacy Policy
About Us
Career Opportunities
Contact AAWU Internet Services Site last modified: April, 17th 2012